createdAt,value
2023-07-24T00:03:35.901Z,99034.67
2023-07-24T00:08:41.401Z,99026.26
2023-07-24T00:13:47.338Z,99015.48
2023-07-24T00:18:52.772Z,99013.73
2023-07-24T00:23:58.354Z,99002.21
2023-07-24T00:29:04.019Z,98988.22
2023-07-24T00:34:09.526Z,98983.89
2023-07-24T00:39:14.965Z,98977.45
2023-07-24T00:44:21.420Z,98972.96
2023-07-24T00:49:27.479Z,98964.62
2023-07-24T00:54:33.901Z,98955.70
2023-07-24T00:59:39.339Z,98955.73
2023-07-24T01:04:44.737Z,98954.88
2023-07-24T01:09:52.487Z,98944.66
2023-07-24T01:15:01.180Z,98942.85
2023-07-24T01:20:07.164Z,98942.85
2023-07-24T01:25:23.494Z,98947.45
2023-07-24T01:30:29.167Z,98955.77
2023-07-24T01:35:34.970Z,98952.91
2023-07-24T01:40:41.201Z,98949.91
2023-07-24T01:45:46.812Z,98944.73
2023-07-24T01:50:52.272Z,98941.23
2023-07-24T01:55:57.672Z,98932.11
2023-07-24T02:01:03.094Z,98926.70
2023-07-24T02:06:08.404Z,98922.70
2023-07-24T02:11:13.683Z,98923.07
2023-07-24T02:16:19.643Z,98918.27
2023-07-24T02:21:25.214Z,98913.57
2023-07-24T02:26:33.603Z,98909.73
2023-07-24T02:31:41.618Z,98910.77
2023-07-24T02:36:47.090Z,98911.83
2023-07-24T02:41:52.580Z,98912.48
2023-07-24T02:46:58.101Z,98916.44
2023-07-24T02:52:03.614Z,98918.83
2023-07-24T02:57:09.666Z,98924.84
2023-07-24T03:02:16.625Z,98926.45
2023-07-24T03:07:22.188Z,98932.16
2023-07-24T03:12:27.853Z,98930.78
2023-07-24T03:17:33.403Z,98927.67
2023-07-24T03:22:38.868Z,98929.23
2023-07-24T03:27:46.365Z,98932.10
2023-07-24T03:32:52.179Z,98930.30
2023-07-24T03:37:57.748Z,98929.14
2023-07-24T03:43:05.083Z,98925.98
2023-07-24T03:48:10.731Z,98913.30
2023-07-24T03:53:16.177Z,98912.61
2023-07-24T03:58:21.770Z,98905.61
2023-07-24T04:03:27.352Z,98902.65
2023-07-24T04:08:32.828Z,98904.84
2023-07-24T04:13:38.407Z,98900.77
2023-07-24T04:18:43.993Z,98915.61
2023-07-24T04:23:49.436Z,98916.16
2023-07-24T04:28:54.995Z,98916.13
2023-07-24T04:34:00.663Z,98916.89
2023-07-24T04:39:06.110Z,98914.20
2023-07-24T04:44:11.504Z,98913.92
2023-07-24T04:49:17.126Z,98919.90
2023-07-24T04:54:22.751Z,98919.91
2023-07-24T04:59:28.342Z,98920.01
2023-07-24T05:04:33.764Z,98917.70
2023-07-24T05:09:39.154Z,98923.89
2023-07-24T05:14:44.547Z,98924.61
2023-07-24T05:19:50.117Z,98903.74
2023-07-24T05:24:55.632Z,98924.19
2023-07-24T05:30:01.108Z,98925.77
2023-07-24T05:35:07.395Z,98923.77
2023-07-24T05:40:13.428Z,98922.87
2023-07-24T05:45:19.223Z,98920.04
2023-07-24T05:50:25.118Z,98920.52
2023-07-24T05:55:30.515Z,98913.31
2023-07-24T06:00:37.043Z,98911.01
2023-07-24T06:05:42.709Z,98912.75
2023-07-24T06:10:48.661Z,98915.66
2023-07-24T06:15:55.122Z,98919.98
2023-07-24T06:21:00.917Z,98918.48
2023-07-24T06:26:06.815Z,98924.71
2023-07-24T06:31:12.987Z,98924.88
2023-07-24T06:36:19.652Z,98928.82
2023-07-24T06:41:25.567Z,98923.17
2023-07-24T06:46:36.683Z,98914.46
2023-07-24T06:51:42.935Z,98911.20
2023-07-24T06:56:49.092Z,98914.41
2023-07-24T07:01:54.812Z,98918.63
2023-07-24T07:07:01.252Z,98919.73
2023-07-24T07:12:08.577Z,98910.62
2023-07-24T07:17:14.686Z,98906.63
2023-07-24T07:22:20.979Z,98910.17
2023-07-24T07:27:26.358Z,98909.31
2023-07-24T07:32:31.643Z,98913.64
2023-07-24T07:37:38.520Z,98923.73
2023-07-24T07:42:45.076Z,98924.87
2023-07-24T07:47:51.674Z,98936.00
2023-07-24T07:52:58.319Z,98932.89
2023-07-24T07:58:04.654Z,98937.34
2023-07-24T08:03:10.114Z,98940.83
2023-07-24T08:08:16.873Z,98946.16
2023-07-24T08:13:23.690Z,98954.30
2023-07-24T08:18:30.528Z,98950.14
2023-07-24T08:23:36.628Z,98955.23
2023-07-24T08:28:44.378Z,98954.54
2023-07-24T08:33:51.095Z,98953.48
2023-07-24T08:38:57.664Z,98949.71
2023-07-24T08:44:04.491Z,98953.58
2023-07-24T08:49:14.573Z,98949.85
2023-07-24T08:54:22.716Z,98946.65
2023-07-24T08:59:29.179Z,98932.58
2023-07-24T09:04:34.927Z,98941.98
2023-07-24T09:09:42.774Z,98941.19
2023-07-24T09:14:49.280Z,98942.67
2023-07-24T09:20:00.326Z,98942.25
2023-07-24T09:25:07.428Z,98930.84
2023-07-24T09:30:17.070Z,98933.13
2023-07-24T09:35:27.516Z,98924.49
2023-07-24T09:40:40.574Z,98921.75
2023-07-24T09:45:46.324Z,98927.66
2023-07-24T09:50:56.560Z,98917.23
2023-07-24T09:56:05.831Z,98915.92
2023-07-24T10:01:11.785Z,98914.02
2023-07-24T10:06:17.736Z,98911.90
2023-07-24T10:11:23.619Z,98909.16
2023-07-24T10:16:29.240Z,98909.03
2023-07-24T10:21:34.963Z,98909.02
2023-07-24T10:26:40.893Z,98903.39
2023-07-24T10:31:55.369Z,98900.00
2023-07-24T10:37:06.673Z,98904.48
2023-07-24T10:42:13.069Z,98891.02
2023-07-24T10:47:18.802Z,98872.25
2023-07-24T10:52:32.368Z,98877.88
2023-07-24T10:57:37.920Z,98878.06
2023-07-24T11:02:43.340Z,98870.83
2023-07-24T11:07:48.993Z,98867.46
2023-07-24T11:12:55.325Z,98859.67
2023-07-24T11:18:00.703Z,98852.60
2023-07-24T11:23:06.208Z,98848.17
2023-07-24T11:28:12.786Z,98832.23
2023-07-24T11:33:19.944Z,98825.95
2023-07-24T11:38:25.476Z,98823.39
2023-07-24T11:43:31.336Z,98817.55
2023-07-24T11:48:44.468Z,98816.80
2023-07-24T11:53:50.249Z,98821.98
2023-07-24T11:58:55.773Z,98823.56
2023-07-24T12:04:01.233Z,98819.81
2023-07-24T12:09:08.083Z,98816.50
2023-07-24T12:14:13.673Z,98816.15
2023-07-24T12:19:19.591Z,98804.25
2023-07-24T12:24:25.551Z,98808.73
2023-07-24T12:29:31.504Z,98798.55
2023-07-24T12:34:36.853Z,98804.52
2023-07-24T12:39:42.671Z,98801.01
2023-07-24T12:44:48.857Z,98798.27
2023-07-24T12:49:57.560Z,98792.50
2023-07-24T12:55:03.356Z,98787.54
2023-07-24T13:00:11.025Z,98786.64
2023-07-24T13:05:17.249Z,98780.71
2023-07-24T13:10:23.016Z,98778.05
2023-07-24T13:15:28.606Z,98769.80
2023-07-24T13:20:34.236Z,98760.76
2023-07-24T13:25:39.956Z,98766.13
2023-07-24T13:30:46.096Z,98757.54
2023-07-24T13:35:51.781Z,98743.77
2023-07-24T13:40:57.761Z,98740.61
2023-07-24T13:46:04.624Z,98736.34
2023-07-24T13:51:10.964Z,98729.16
2023-07-24T14:02:35.675Z,98712.06
2023-07-24T14:07:41.390Z,98702.95
2023-07-24T14:12:46.771Z,98694.98
2023-07-24T14:17:52.294Z,98685.77
2023-07-24T14:22:57.768Z,98668.55
2023-07-24T14:28:03.069Z,98658.36
2023-07-24T14:33:12.120Z,98652.55
2023-07-24T14:38:17.564Z,98643.71
2023-07-24T14:43:22.883Z,98642.86
2023-07-24T14:48:28.727Z,98633.45
2023-07-24T14:53:34.119Z,98626.09
2023-07-24T14:58:39.570Z,98626.34
2023-07-24T15:03:45.266Z,98619.27
2023-07-24T15:08:54.926Z,98609.14
2023-07-24T15:14:00.413Z,98596.47
2023-07-24T15:19:05.830Z,98590.05
2023-07-24T15:24:11.816Z,98607.16
2023-07-24T15:29:19.854Z,98599.94
2023-07-24T15:34:26.247Z,98588.23
2023-07-24T15:39:31.759Z,98577.59
2023-07-24T15:44:37.369Z,98562.23
2023-07-24T15:49:42.909Z,98554.66
2023-07-24T15:54:48.292Z,98547.42
2023-07-24T15:59:53.733Z,98538.27
2023-07-24T16:04:59.177Z,98528.14
2023-07-24T16:10:04.616Z,98522.11
2023-07-24T16:15:11.544Z,98512.35
2023-07-24T16:20:17.597Z,98508.77
2023-07-24T16:25:22.967Z,98496.05
2023-07-24T16:30:28.375Z,98489.64
2023-07-24T16:35:33.972Z,98484.18
2023-07-24T16:40:39.419Z,98482.60
2023-07-24T16:46:04.206Z,98478.35
2023-07-24T16:51:10.460Z,98478.52
2023-07-24T16:56:15.855Z,98468.27
2023-07-24T17:01:21.214Z,98465.71
2023-07-24T17:06:26.936Z,98462.70
2023-07-24T17:11:32.697Z,98459.82
2023-07-24T17:16:38.211Z,98454.77
2023-07-24T17:21:44.772Z,98449.08
2023-07-24T17:26:49.999Z,98441.16
2023-07-24T17:31:55.175Z,98436.66
2023-07-24T17:37:00.531Z,98419.53
2023-07-24T17:42:06.372Z,98424.08
2023-07-24T17:47:11.819Z,98417.81
2023-07-24T17:52:17.567Z,98413.78
2023-07-24T17:57:22.827Z,98409.23
2023-07-24T18:02:28.367Z,98423.59
2023-07-24T18:07:35.196Z,98428.92
2023-07-24T18:12:40.524Z,98395.13
2023-07-24T18:17:47.054Z,98414.67
2023-07-24T18:22:52.521Z,98419.77
2023-07-24T18:27:58.115Z,98421.81
2023-07-24T18:33:03.964Z,98426.85
2023-07-24T18:38:11.383Z,98424.63
2023-07-24T18:43:16.931Z,98415.26
2023-07-24T18:48:22.370Z,98411.15
2023-07-24T18:53:28.043Z,98411.33
2023-07-24T18:58:33.596Z,98404.48
2023-07-24T19:03:39.319Z,98403.64
2023-07-24T19:08:44.833Z,98397.52
2023-07-24T19:13:50.226Z,98393.42
2023-07-24T19:18:55.587Z,98388.91
2023-07-24T19:24:00.897Z,98372.39
2023-07-24T19:29:06.324Z,98373.58
2023-07-24T19:35:01.683Z,98370.68
2023-07-24T19:40:08.435Z,98363.31
2023-07-24T19:45:13.991Z,98355.37
2023-07-24T19:50:19.681Z,98346.09
2023-07-24T19:55:25.535Z,98346.96
2023-07-24T20:00:33.082Z,98347.81
2023-07-24T20:05:38.923Z,98339.80
2023-07-24T20:10:47.343Z,98333.98
2023-07-24T20:15:53.392Z,98330.09
2023-07-24T20:20:59.334Z,98327.52
2023-07-24T20:26:06.093Z,98319.52
2023-07-24T20:31:12.404Z,98315.49
2023-07-24T20:36:18.765Z,98302.17
2023-07-24T20:41:24.485Z,98295.10
2023-07-24T20:46:31.246Z,98297.08
2023-07-24T20:51:37.047Z,98297.41
2023-07-24T20:56:43.275Z,98289.11
2023-07-24T21:01:48.958Z,98274.34
2023-07-24T21:06:55.339Z,98258.55
2023-07-24T21:12:01.504Z,98253.08
2023-07-24T21:17:07.839Z,98255.53
2023-07-24T21:22:14.708Z,98249.27
2023-07-24T21:27:20.607Z,98243.55
2023-07-24T21:32:26.294Z,98241.31
2023-07-24T21:37:32.030Z,98265.98
2023-07-24T21:42:37.424Z,98266.39
2023-07-24T21:47:43.192Z,98243.70
2023-07-24T21:52:48.678Z,98244.20
2023-07-24T21:57:56.414Z,98264.25
2023-07-24T22:03:02.536Z,98257.41
2023-07-24T22:08:08.671Z,98246.50
2023-07-24T22:13:14.055Z,98242.34
2023-07-24T22:18:19.608Z,98247.19
2023-07-24T22:23:26.024Z,98246.38
2023-07-24T22:28:31.832Z,98246.86
2023-07-24T22:33:38.303Z,98229.51
2023-07-24T22:38:43.750Z,98222.27
2023-07-24T22:43:49.186Z,98219.64
2023-07-24T22:48:54.481Z,98208.39
2023-07-24T22:53:59.887Z,98206.02
2023-07-24T22:59:25.419Z,98201.00
2023-07-24T23:04:31.158Z,98195.55
2023-07-24T23:09:36.943Z,98181.12
2023-07-24T23:14:42.651Z,98171.78
2023-07-24T23:19:48.051Z,98168.01
2023-07-24T23:24:53.743Z,98159.25
2023-07-24T23:30:02.141Z,98158.33
2023-07-24T23:35:08.114Z,98147.05
2023-07-24T23:40:14.196Z,98146.23
2023-07-24T23:45:19.784Z,98136.02
2023-07-24T23:50:25.302Z,98125.54
2023-07-24T23:55:32.722Z,98122.87
